Time;durP1;ratioP1;P1;durP2;ratioP2;P2;SDS_P1;SDS_P2;PMS_P1;PMS_P2;Temp;Humidity;BMP_temperature;BMP_pressure;BME280_temperature;BME280_humidity;BME280_pressure;Samples;Min_cycle;Max_cycle;Signal;HPM_P1;HPM_P2
2021/09/18 00:01:55;;;;;;;7.50;6.80;;;;;;;;;;5074752;28;20270;-57
2021/09/18 00:04:21;;;;;;;7.40;6.70;;;;;;;;;;5089419;28;20233;-57
2021/09/18 00:06:48;;;;;;;6.80;6.20;;;;;;;;;;5074575;28;20710;-57
2021/09/18 00:09:14;;;;;;;7.23;6.60;;;;;;;;;;5091338;28;20540;-57
2021/09/18 00:11:40;;;;;;;7.00;6.30;;;;;;;;;;5109711;28;20219;-57
2021/09/18 00:14:07;;;;;;;7.33;6.63;;;;;;;;;;5084147;28;20191;-58
2021/09/18 00:16:33;;;;;;;7.33;6.63;;;;;;;;;;5073913;28;20543;-58
2021/09/18 00:18:59;;;;;;;7.57;6.87;;;;;;;;;;5090323;28;20179;-57
2021/09/18 00:21:25;;;;;;;7.73;7.07;;;;;;;;;;5097991;28;20220;-57
2021/09/18 00:23:54;;;;;;;7.17;6.57;;;;;;;;;;5102933;28;20236;-57
2021/09/18 00:26:20;;;;;;;7.00;6.40;;;;;;;;;;5072876;28;20180;-57
2021/09/18 00:28:46;;;;;;;6.87;6.27;;;;;;;;;;5099835;28;20179;-57
2021/09/18 00:31:13;;;;;;;7.53;6.93;;;;;;;;;;5073487;28;20188;-57
2021/09/18 00:33:39;;;;;;;7.37;6.70;;;;;;;;;;5088851;28;20235;-57
2021/09/18 00:36:06;;;;;;;7.17;6.57;;;;;;;;;;5082944;28;20638;-57
2021/09/18 00:38:32;;;;;;;7.10;6.50;;;;;;;;;;5077711;28;20229;-57
2021/09/18 00:40:58;;;;;;;7.33;6.63;;;;;;;;;;5073094;28;20187;-57
2021/09/18 00:43:25;;;;;;;7.23;6.53;;;;;;;;;;5081925;28;20253;-57
2021/09/18 00:45:51;;;;;;;7.67;7.00;;;;;;;;;;5083186;28;20190;-57
2021/09/18 00:48:18;;;;;;;6.87;6.33;;;;;;;;;;5097263;28;20176;-57
2021/09/18 00:50:44;;;;;;;7.10;6.50;;;;;;;;;;5080003;28;20180;-57
2021/09/18 00:53:10;;;;;;;7.53;6.93;;;;;;;;;;5073163;28;20553;-57
2021/09/18 00:55:37;;;;;;;7.00;6.40;;;;;;;;;;5089600;28;20183;-57
2021/09/18 00:58:03;;;;;;;7.30;6.60;;;;;;;;;;5090170;28;20624;-57
2021/09/18 01:00:30;;;;;;;6.77;6.23;;;;;;;;;;5076967;28;20663;-57
2021/09/18 01:02:56;;;;;;;7.30;6.63;;;;;;;;;;5083027;28;20187;-57
2021/09/18 01:05:22;;;;;;;7.33;6.73;;;;;;;;;;5074953;28;20214;-57
2021/09/18 01:07:49;;;;;;;7.63;6.93;;;;;;;;;;5071694;28;20176;-57
2021/09/18 01:10:15;;;;;;;7.63;6.93;;;;;;;;;;5058733;28;20653;-57
2021/09/18 01:12:57;;;;;;;7.70;7.00;;;;;;;;;;5074581;28;20227;-58
2021/09/18 01:15:25;;;;;;;7.40;6.73;;;;;;;;;;5090288;28;20180;-57
2021/09/18 01:17:51;;;;;;;8.13;7.43;;;;;;;;;;5075460;28;20436;-57
2021/09/18 01:20:17;;;;;;;8.37;7.40;;;;;;;;;;5089359;28;20258;-57
2021/09/18 01:22:45;;;;;;;7.60;6.90;;;;;;;;;;5072300;28;20303;-57
2021/09/18 01:25:11;;;;;;;7.00;6.40;;;;;;;;;;5073014;28;20176;-57
2021/09/18 01:27:37;;;;;;;7.63;6.90;;;;;;;;;;5056118;28;20188;-57
2021/09/18 01:30:04;;;;;;;8.50;7.70;;;;;;;;;;5089911;28;20686;-57
2021/09/18 01:32:30;;;;;;;8.33;7.50;;;;;;;;;;5072584;28;20200;-57
2021/09/18 01:34:57;;;;;;;10.90;8.53;;;;;;;;;;5089747;28;20363;-57
2021/09/18 01:37:23;;;;;;;7.23;6.53;;;;;;;;;;5081286;28;20198;-57
2021/09/18 01:39:49;;;;;;;8.30;7.50;;;;;;;;;;5079273;28;20176;-57
2021/09/18 01:42:15;;;;;;;8.43;7.30;;;;;;;;;;5072030;28;20176;-57
2021/09/18 01:44:42;;;;;;;7.37;6.67;;;;;;;;;;5079247;28;20547;-57
2021/09/18 01:47:08;;;;;;;10.13;7.00;;;;;;;;;;5074784;28;20179;-57
2021/09/18 01:49:34;;;;;;;8.50;7.70;;;;;;;;;;5071749;28;20193;-57
2021/09/18 01:52:18;;;;;;;9.63;8.83;;;;;;;;;;5090117;28;20179;-57
2021/09/18 01:54:44;;;;;;;10.90;7.83;;;;;;;;;;5070397;28;21080;-57
2021/09/18 01:57:11;;;;;;;9.68;8.25;;;;;;;;;;5089143;28;20435;-58
2021/09/18 01:59:37;;;;;;;8.87;7.93;;;;;;;;;;5070479;28;20172;-57
2021/09/18 02:02:04;;;;;;;8.57;7.60;;;;;;;;;;5072585;28;20290;-57
2021/09/18 02:04:30;;;;;;;8.53;7.80;;;;;;;;;;5070887;28;20643;-57
2021/09/18 02:06:56;;;;;;;8.60;7.87;;;;;;;;;;5089712;28;20182;-57
2021/09/18 02:09:23;;;;;;;10.47;8.90;;;;;;;;;;5069947;28;20206;-57
2021/09/18 02:11:49;;;;;;;9.37;8.40;;;;;;;;;;5071554;28;20219;-57
2021/09/18 02:14:15;;;;;;;9.60;8.67;;;;;;;;;;5088528;28;20209;-57
2021/09/18 02:16:41;;;;;;;9.27;8.47;;;;;;;;;;5089641;28;20180;-57
2021/09/18 02:19:08;;;;;;;8.87;8.07;;;;;;;;;;5069904;28;20192;-57
2021/09/18 02:21:34;;;;;;;9.53;8.60;;;;;;;;;;5089059;28;20541;-57
2021/09/18 02:24:00;;;;;;;9.20;8.20;;;;;;;;;;5089018;28;20259;-57
2021/09/18 02:26:26;;;;;;;9.30;8.50;;;;;;;;;;5070993;28;20180;-57
2021/09/18 02:28:52;;;;;;;10.87;8.53;;;;;;;;;;5071326;28;20187;-57
2021/09/18 02:31:19;;;;;;;9.03;8.23;;;;;;;;;;5089134;28;20693;-57
2021/09/18 02:33:45;;;;;;;10.63;9.00;;;;;;;;;;5071910;28;20184;-57
2021/09/18 02:36:11;;;;;;;9.10;8.30;;;;;;;;;;5089212;28;20219;-57
2021/09/18 02:38:37;;;;;;;9.83;8.87;;;;;;;;;;5086447;28;20196;-57
2021/09/18 02:41:04;;;;;;;10.60;9.10;;;;;;;;;;5088612;28;20183;-57
2021/09/18 02:43:30;;;;;;;10.13;8.93;;;;;;;;;;5070604;28;20602;-57
2021/09/18 02:45:56;;;;;;;9.90;9.00;;;;;;;;;;5070922;28;20512;-57
2021/09/18 02:48:22;;;;;;;9.13;8.33;;;;;;;;;;5070960;28;20175;-57
2021/09/18 02:50:49;;;;;;;9.70;8.67;;;;;;;;;;5088294;28;20277;-57
2021/09/18 02:53:16;;;;;;;10.17;9.13;;;;;;;;;;5070742;28;20183;-57
2021/09/18 02:55:42;;;;;;;10.40;9.40;;;;;;;;;;5076810;28;20514;-57
2021/09/18 02:58:08;;;;;;;10.33;9.23;;;;;;;;;;5087905;28;20666;-57
2021/09/18 03:00:34;;;;;;;11.23;10.03;;;;;;;;;;5070409;28;20187;-57
2021/09/18 03:03:00;;;;;;;10.27;9.17;;;;;;;;;;5074871;28;20180;-57
2021/09/18 03:05:26;;;;;;;10.43;9.20;;;;;;;;;;5072602;28;20183;-57
2021/09/18 03:07:52;;;;;;;10.20;9.20;;;;;;;;;;5088264;28;20232;-57
2021/09/18 03:10:19;;;;;;;10.60;9.60;;;;;;;;;;5069449;28;20179;-57
2021/09/18 03:12:45;;;;;;;10.30;9.23;;;;;;;;;;5084522;28;20245;-57
2021/09/18 03:15:11;;;;;;;13.20;9.97;;;;;;;;;;5088280;28;20183;-57
2021/09/18 03:17:38;;;;;;;10.57;8.90;;;;;;;;;;5097889;28;20552;-57
2021/09/18 03:20:05;;;;;;;9.27;8.40;;;;;;;;;;5095122;28;20206;-57
2021/09/18 03:22:32;;;;;;;14.87;9.60;;;;;;;;;;5053701;28;20643;-57
2021/09/18 03:24:58;;;;;;;11.90;9.63;;;;;;;;;;5071046;28;20173;-57
2021/09/18 03:27:24;;;;;;;10.30;9.30;;;;;;;;;;5088848;28;20258;-56
2021/09/18 03:29:50;;;;;;;10.97;9.87;;;;;;;;;;5087894;28;20186;-57
2021/09/18 03:32:16;;;;;;;11.17;9.87;;;;;;;;;;5070775;28;20206;-57
2021/09/18 03:34:43;;;;;;;11.83;10.47;;;;;;;;;;5064537;28;20287;-57
2021/09/18 03:37:09;;;;;;;11.03;9.87;;;;;;;;;;5064352;28;20207;-57
2021/09/18 03:39:35;;;;;;;11.37;10.27;;;;;;;;;;5083220;28;20176;-57
2021/09/18 03:42:01;;;;;;;11.53;10.43;;;;;;;;;;5079287;28;20730;-57
2021/09/18 03:44:27;;;;;;;11.00;10.00;;;;;;;;;;5074499;28;20206;-57
2021/09/18 03:46:53;;;;;;;11.30;10.20;;;;;;;;;;5088876;28;20179;-57
2021/09/18 03:49:20;;;;;;;12.83;10.13;;;;;;;;;;5088086;28;20184;-57
2021/09/18 03:51:46;;;;;;;12.43;9.83;;;;;;;;;;5082340;28;20179;-57
2021/09/18 03:54:13;;;;;;;11.63;10.43;;;;;;;;;;5086358;28;20812;-57
2021/09/18 03:56:39;;;;;;;11.17;10.00;;;;;;;;;;5069997;28;20205;-57
2021/09/18 03:59:05;;;;;;;10.30;9.30;;;;;;;;;;5087050;28;20204;-57
2021/09/18 04:01:32;;;;;;;11.13;10.13;;;;;;;;;;5085791;28;20183;-57
2021/09/18 04:03:59;;;;;;;10.83;9.73;;;;;;;;;;5087433;28;20168;-57
2021/09/18 04:06:26;;;;;;;11.17;10.03;;;;;;;;;;5078703;28;20182;-58
2021/09/18 04:08:53;;;;;;;11.20;10.07;;;;;;;;;;5086604;28;20180;-56
2021/09/18 04:11:19;;;;;;;10.57;9.47;;;;;;;;;;5071714;28;20224;-57
2021/09/18 04:13:47;;;;;;;11.40;9.70;;;;;;;;;;5078475;28;20186;-57
2021/09/18 04:16:13;;;;;;;11.47;10.37;;;;;;;;;;5104320;28;20171;-57
2021/09/18 04:18:40;;;;;;;11.83;9.97;;;;;;;;;;5088104;28;20257;-57
2021/09/18 04:21:06;;;;;;;12.57;11.27;;;;;;;;;;5072342;28;20554;-57
2021/09/18 04:23:33;;;;;;;10.70;9.60;;;;;;;;;;5087287;28;20188;-57
2021/09/18 04:25:59;;;;;;;11.90;10.73;;;;;;;;;;5069637;28;20198;-57
2021/09/18 04:28:25;;;;;;;14.57;11.20;;;;;;;;;;5088130;28;20172;-57
2021/09/18 04:30:51;;;;;;;11.13;9.87;;;;;;;;;;5085850;28;20212;-57
2021/09/18 04:33:17;;;;;;;12.93;11.83;;;;;;;;;;5087174;28;20244;-57
2021/09/18 04:35:43;;;;;;;10.60;9.60;;;;;;;;;;5076106;28;20184;-57
2021/09/18 04:38:10;;;;;;;10.17;9.17;;;;;;;;;;5104567;28;20199;-57
2021/09/18 04:40:36;;;;;;;11.23;10.13;;;;;;;;;;5072805;28;20606;-57
2021/09/18 04:43:02;;;;;;;10.77;9.77;;;;;;;;;;5073712;28;20184;-58
2021/09/18 04:45:28;;;;;;;10.70;9.70;;;;;;;;;;5090786;28;20313;-57
2021/09/18 04:47:54;;;;;;;10.33;9.30;;;;;;;;;;5086137;28;20187;-57
2021/09/18 04:50:21;;;;;;;11.27;10.17;;;;;;;;;;5079265;28;20219;-57
2021/09/18 04:52:47;;;;;;;11.50;10.37;;;;;;;;;;5082197;28;20184;-57
2021/09/18 04:55:13;;;;;;;11.93;10.90;;;;;;;;;;5090467;28;20267;-57
2021/09/18 04:57:40;;;;;;;9.97;8.97;;;;;;;;;;5073338;28;20253;-57
2021/09/18 05:00:07;;;;;;;12.17;11.17;;;;;;;;;;5092750;28;20178;-57
2021/09/18 05:02:33;;;;;;;11.43;10.00;;;;;;;;;;5111699;28;20184;-57
2021/09/18 05:04:59;;;;;;;11.20;10.10;;;;;;;;;;5095338;28;20172;-57
2021/09/18 05:07:26;;;;;;;10.37;9.37;;;;;;;;;;5091195;28;20626;-57
2021/09/18 05:09:52;;;;;;;11.17;10.07;;;;;;;;;;5073214;28;20183;-57
2021/09/18 05:12:18;;;;;;;10.77;9.77;;;;;;;;;;5089167;28;20223;-57
2021/09/18 05:14:44;;;;;;;10.90;9.87;;;;;;;;;;5090553;28;20190;-57
2021/09/18 05:17:11;;;;;;;11.90;10.67;;;;;;;;;;5090162;28;20737;-57
2021/09/18 05:19:37;;;;;;;11.53;10.33;;;;;;;;;;5090549;28;20544;-57
2021/09/18 05:22:03;;;;;;;11.37;10.17;;;;;;;;;;5089953;28;20180;-57
2021/09/18 05:24:30;;;;;;;10.70;9.60;;;;;;;;;;5089044;28;20654;-57
2021/09/18 05:26:56;;;;;;;12.10;10.90;;;;;;;;;;5090302;28;20583;-57
2021/09/18 05:29:23;;;;;;;10.67;9.50;;;;;;;;;;5080201;28;20172;-57
2021/09/18 05:31:49;;;;;;;11.10;9.97;;;;;;;;;;5091569;28;20203;-57
2021/09/18 05:34:15;;;;;;;12.20;10.50;;;;;;;;;;5091047;28;20692;-57
2021/09/18 05:36:41;;;;;;;12.77;11.47;;;;;;;;;;5080734;28;20171;-57
2021/09/18 05:39:08;;;;;;;12.00;10.77;;;;;;;;;;5087199;28;20201;-57
2021/09/18 05:41:34;;;;;;;11.80;10.60;;;;;;;;;;5090569;28;20230;-57
2021/09/18 05:44:00;;;;;;;11.10;9.93;;;;;;;;;;5089012;28;20210;-56
2021/09/18 05:46:26;;;;;;;11.87;10.77;;;;;;;;;;5072622;28;20221;-57
2021/09/18 05:48:53;;;;;;;11.63;10.50;;;;;;;;;;5090992;28;20189;-57
2021/09/18 05:51:19;;;;;;;11.93;10.73;;;;;;;;;;5085919;28;20179;-57
2021/09/18 05:53:45;;;;;;;11.73;10.53;;;;;;;;;;5100557;28;20186;-57
2021/09/18 05:56:11;;;;;;;11.53;10.40;;;;;;;;;;5071073;28;20589;-57
2021/09/18 05:58:38;;;;;;;11.67;10.50;;;;;;;;;;5088059;28;20196;-57
2021/09/18 06:01:04;;;;;;;10.60;9.60;;;;;;;;;;5087871;28;20176;-57
2021/09/18 06:03:30;;;;;;;12.53;11.40;;;;;;;;;;5088613;28;20176;-57
2021/09/18 06:05:56;;;;;;;12.67;11.43;;;;;;;;;;5087517;28;20200;-57
2021/09/18 06:08:23;;;;;;;12.87;11.57;;;;;;;;;;5083842;28;20237;-57
2021/09/18 06:10:49;;;;;;;12.70;11.50;;;;;;;;;;5085600;28;20218;-57
2021/09/18 06:13:15;;;;;;;12.63;11.30;;;;;;;;;;5072145;28;20183;-57
2021/09/18 06:15:42;;;;;;;12.33;11.03;;;;;;;;;;5083306;28;20180;-57
2021/09/18 06:18:08;;;;;;;13.57;12.20;;;;;;;;;;5086308;28;20211;-57
2021/09/18 06:20:34;;;;;;;13.03;11.63;;;;;;;;;;5084239;28;20702;-57
2021/09/18 06:23:00;;;;;;;11.97;10.67;;;;;;;;;;5072614;28;20589;-57
2021/09/18 06:25:26;;;;;;;12.03;10.80;;;;;;;;;;5088443;28;20258;-57
2021/09/18 06:27:52;;;;;;;12.93;11.63;;;;;;;;;;5054682;28;20168;-57
2021/09/18 06:30:18;;;;;;;13.60;12.20;;;;;;;;;;5085445;28;20187;-56
2021/09/18 06:32:45;;;;;;;13.23;11.83;;;;;;;;;;5085453;28;20966;-57
2021/09/18 06:35:11;;;;;;;13.33;11.90;;;;;;;;;;5068262;28;20185;-57
2021/09/18 06:37:44;;;;;;;14.67;11.27;;;;;;;;;;5075739;28;20683;-57
2021/09/18 06:40:11;;;;;;;12.83;11.63;;;;;;;;;;5069934;28;20527;-57
2021/09/18 06:42:37;;;;;;;13.10;11.77;;;;;;;;;;5077888;28;20639;-57
2021/09/18 06:45:04;;;;;;;13.40;11.97;;;;;;;;;;5088970;28;20233;-57
2021/09/18 06:47:30;;;;;;;13.17;11.67;;;;;;;;;;5084338;28;20550;-57
2021/09/18 06:49:57;;;;;;;14.50;12.07;;;;;;;;;;5084078;28;20186;-57
2021/09/18 06:52:23;;;;;;;13.63;12.33;;;;;;;;;;5081241;28;20192;-57
2021/09/18 06:54:49;;;;;;;15.07;12.83;;;;;;;;;;5073470;28;20256;-57
2021/09/18 06:57:15;;;;;;;14.00;12.27;;;;;;;;;;5046849;28;20237;-57
2021/09/18 06:59:42;;;;;;;14.50;13.00;;;;;;;;;;5086217;28;20485;-57
2021/09/18 07:02:08;;;;;;;14.73;13.13;;;;;;;;;;5082300;28;20176;-57
2021/09/18 07:04:36;;;;;;;14.47;13.07;;;;;;;;;;5084377;28;20226;-57
2021/09/18 07:07:02;;;;;;;14.70;13.23;;;;;;;;;;5068049;28;20253;-57
2021/09/18 07:09:29;;;;;;;16.10;14.40;;;;;;;;;;5073286;28;20283;-57
2021/09/18 07:11:55;;;;;;;16.67;14.90;;;;;;;;;;5058161;28;20228;-57
2021/09/18 07:14:22;;;;;;;14.20;12.80;;;;;;;;;;5068009;28;20183;-64
2021/09/18 07:16:48;;;;;;;16.10;14.50;;;;;;;;;;5063631;28;21247;-57
2021/09/18 07:19:15;;;;;;;16.20;14.57;;;;;;;;;;5051314;28;20246;-57
2021/09/18 07:21:41;;;;;;;15.20;13.70;;;;;;;;;;5049961;28;20700;-57
2021/09/18 07:24:08;;;;;;;17.03;15.23;;;;;;;;;;5072815;28;20207;-57
2021/09/18 07:26:34;;;;;;;16.97;15.27;;;;;;;;;;5066975;28;20182;-57
2021/09/18 07:29:01;;;;;;;16.90;15.13;;;;;;;;;;5067445;28;20754;-57
2021/09/18 07:31:27;;;;;;;17.63;15.83;;;;;;;;;;5049806;28;20172;-57
2021/09/18 07:33:54;;;;;;;18.07;16.27;;;;;;;;;;5053641;28;20178;-57
2021/09/18 07:36:20;;;;;;;18.07;16.23;;;;;;;;;;5051420;28;20588;-57
2021/09/18 07:38:48;;;;;;;17.57;15.70;;;;;;;;;;5032520;28;20201;-56
2021/09/18 07:41:15;;;;;;;19.63;17.70;;;;;;;;;;5051636;28;20177;-57
2021/09/18 07:43:41;;;;;;;18.93;17.03;;;;;;;;;;5069972;28;20184;-57
2021/09/18 07:46:07;;;;;;;18.77;16.80;;;;;;;;;;5065727;28;20177;-57
2021/09/18 07:48:33;;;;;;;18.47;16.60;;;;;;;;;;5065112;28;20195;-57
2021/09/18 07:51:00;;;;;;;18.83;16.83;;;;;;;;;;5048835;28;20590;-57
2021/09/18 07:53:27;;;;;;;18.87;16.97;;;;;;;;;;5065902;28;20223;-57
2021/09/18 07:55:53;;;;;;;23.63;21.10;;;;;;;;;;5065843;28;20631;-57
2021/09/18 07:58:19;;;;;;;23.23;20.70;;;;;;;;;;5067090;28;20192;-56
2021/09/18 08:00:46;;;;;;;26.30;23.20;;;;;;;;;;5066893;28;20211;-56
2021/09/18 08:03:14;;;;;;;25.20;22.57;;;;;;;;;;5071029;28;20184;-57
2021/09/18 08:05:40;;;;;;;33.53;26.80;;;;;;;;;;5066863;28;20751;-57
2021/09/18 08:08:06;;;;;;;29.37;26.37;;;;;;;;;;5067204;28;20188;-57
2021/09/18 08:10:34;;;;;;;27.30;24.50;;;;;;;;;;5068131;28;20180;-57
2021/09/18 08:13:00;;;;;;;28.30;25.03;;;;;;;;;;5088449;28;20183;-57
2021/09/18 08:15:26;;;;;;;27.00;24.30;;;;;;;;;;5088772;28;20207;-57
2021/09/18 08:17:52;;;;;;;28.27;25.47;;;;;;;;;;5086559;28;20203;-57
2021/09/18 08:20:19;;;;;;;30.10;27.23;;;;;;;;;;5080640;28;20844;-57
2021/09/18 08:22:45;;;;;;;29.53;26.50;;;;;;;;;;5075527;28;20566;-57
2021/09/18 08:25:11;;;;;;;26.43;24.00;;;;;;;;;;5080274;28;20270;-57
2021/09/18 08:27:38;;;;;;;28.77;24.57;;;;;;;;;;5087955;28;20661;-57
2021/09/18 08:30:05;;;;;;;27.20;23.77;;;;;;;;;;5085361;28;20209;-57
2021/09/18 08:32:31;;;;;;;27.20;24.40;;;;;;;;;;5090203;28;20204;-57
2021/09/18 08:34:57;;;;;;;25.13;22.53;;;;;;;;;;5084016;28;20213;-57
2021/09/18 08:37:23;;;;;;;25.40;23.03;;;;;;;;;;5090019;28;20204;-57
2021/09/18 08:39:49;;;;;;;26.23;23.60;;;;;;;;;;5055993;28;20172;-57
2021/09/18 08:42:16;;;;;;;26.27;23.43;;;;;;;;;;5088732;28;20359;-57
2021/09/18 08:44:43;;;;;;;28.17;24.00;;;;;;;;;;5090125;28;20229;-57
2021/09/18 08:47:09;;;;;;;26.40;23.30;;;;;;;;;;5086188;28;20255;-57
2021/09/18 08:49:35;;;;;;;29.60;25.20;;;;;;;;;;5088906;28;20180;-57
2021/09/18 08:52:02;;;;;;;27.90;25.00;;;;;;;;;;5086419;28;20181;-57
2021/09/18 08:54:28;;;;;;;29.40;26.00;;;;;;;;;;5091404;28;20223;-57
2021/09/18 08:56:54;;;;;;;30.77;27.37;;;;;;;;;;5091256;28;20259;-58
2021/09/18 08:59:20;;;;;;;31.73;28.30;;;;;;;;;;5093357;28;20259;-58
2021/09/18 09:02:06;;;;;;;32.60;28.97;;;;;;;;;;5094310;28;20191;-57
2021/09/18 09:04:33;;;;;;;33.40;29.57;;;;;;;;;;5091568;28;20654;-58
2021/09/18 09:07:01;;;;;;;33.57;29.93;;;;;;;;;;5087479;28;20181;-58
2021/09/18 09:09:27;;;;;;;33.03;29.70;;;;;;;;;;5071571;28;20259;-58
2021/09/18 09:11:54;;;;;;;33.60;29.90;;;;;;;;;;5077744;28;20710;-58
2021/09/18 09:14:20;;;;;;;36.00;32.03;;;;;;;;;;5069471;28;20238;-57
2021/09/18 09:17:06;;;;;;;32.03;28.83;;;;;;;;;;5070455;28;20628;-58
2021/09/18 09:19:39;;;;;;;35.17;30.60;;;;;;;;;;5069980;28;20188;-58
2021/09/18 09:22:06;;;;;;;35.70;31.90;;;;;;;;;;5052288;28;20177;-58
2021/09/18 09:24:32;;;;;;;37.50;32.00;;;;;;;;;;5069382;28;20196;-58
2021/09/18 09:27:09;;;;;;;36.83;30.77;;;;;;;;;;5070235;28;20177;-58
2021/09/18 09:29:39;;;;;;;37.30;31.27;;;;;;;;;;5069320;28;20211;-58
2021/09/18 09:32:24;;;;;;;36.33;31.50;;;;;;;;;;5066399;28;20196;-58
2021/09/18 09:34:53;;;;;;;33.00;29.43;;;;;;;;;;5068173;28;20168;-57
2021/09/18 09:37:19;;;;;;;36.53;31.60;;;;;;;;;;5068959;28;20740;-58
2021/09/18 09:39:50;;;;;;;33.03;28.77;;;;;;;;;;5050420;28;20181;-58
2021/09/18 09:42:16;;;;;;;32.20;28.90;;;;;;;;;;5069129;28;20222;-58
2021/09/18 09:44:42;;;;;;;34.20;28.73;;;;;;;;;;5068162;28;20188;-58
2021/09/18 09:47:09;;;;;;;31.07;27.70;;;;;;;;;;5074254;28;20608;-57
2021/09/18 09:49:43;;;;;;;32.13;28.80;;;;;;;;;;5070710;28;20207;-57
2021/09/18 09:52:23;;;;;;;30.77;27.47;;;;;;;;;;5071325;28;20225;-57
2021/09/18 09:54:49;;;;;;;32.43;28.50;;;;;;;;;;5075774;28;20527;-57
2021/09/18 09:57:15;;;;;;;31.03;27.70;;;;;;;;;;5045685;28;20565;-57
2021/09/18 09:59:41;;;;;;;31.83;26.90;;;;;;;;;;5070141;28;20272;-57
2021/09/18 10:02:08;;;;;;;30.00;26.83;;;;;;;;;;5051299;28;20733;-57
2021/09/18 10:04:35;;;;;;;29.80;26.43;;;;;;;;;;5068970;28;20225;-57
2021/09/18 10:07:01;;;;;;;27.47;24.40;;;;;;;;;;5069760;28;20185;-57
2021/09/18 10:09:27;;;;;;;26.03;23.10;;;;;;;;;;5070111;28;20654;-58
2021/09/18 10:11:55;;;;;;;26.67;23.63;;;;;;;;;;5081666;28;20436;-57
2021/09/18 10:14:24;;;;;;;24.87;22.30;;;;;;;;;;5089226;28;20210;-57
2021/09/18 10:16:52;;;;;;;26.87;23.40;;;;;;;;;;5089157;28;20213;-57
2021/09/18 10:19:29;;;;;;;24.27;21.73;;;;;;;;;;5071171;28;20303;-57
2021/09/18 10:24:39;;;;;;;22.30;19.90;;;;;;;;;;5092354;28;20810;-57
2021/09/18 10:27:19;;;;;;;22.80;20.40;;;;;;;;;;5109018;28;20167;-59
2021/09/18 10:29:46;;;;;;;21.93;19.67;;;;;;;;;;5087160;28;20172;-58
2021/09/18 10:32:12;;;;;;;22.43;20.10;;;;;;;;;;5090367;28;20198;-58
2021/09/18 10:34:38;;;;;;;22.37;20.03;;;;;;;;;;5089944;28;20176;-59
2021/09/18 10:37:05;;;;;;;22.03;19.53;;;;;;;;;;5072556;28;20210;-58
2021/09/18 10:39:31;;;;;;;22.37;19.97;;;;;;;;;;5087786;28;20294;-58
2021/09/18 10:41:59;;;;;;;19.00;17.00;;;;;;;;;;5090595;28;20570;-58
2021/09/18 10:44:27;;;;;;;20.07;18.03;;;;;;;;;;5089826;28;20199;-58
2021/09/18 10:46:54;;;;;;;21.60;19.40;;;;;;;;;;5072619;28;20179;-58
2021/09/18 10:49:33;;;;;;;20.70;16.70;;;;;;;;;;5065762;28;20639;-59
2021/09/18 10:52:24;;;;;;;18.50;16.37;;;;;;;;;;5089845;28;20178;-59
2021/09/18 10:55:02;;;;;;;18.07;16.27;;;;;;;;;;5086788;28;20184;-59
2021/09/18 10:57:38;;;;;;;18.63;16.73;;;;;;;;;;5087185;28;20239;-59
2021/09/18 11:00:04;;;;;;;19.37;17.23;;;;;;;;;;5087952;28;20214;-59
2021/09/18 11:02:30;;;;;;;18.83;17.00;;;;;;;;;;5087435;28;20178;-59
2021/09/18 11:04:57;;;;;;;17.60;15.80;;;;;;;;;;5069140;28;20179;-59
2021/09/18 11:07:42;;;;;;;17.73;15.93;;;;;;;;;;5065999;28;20551;-59
2021/09/18 11:10:08;;;;;;;19.63;16.57;;;;;;;;;;5087427;28;20178;-59
2021/09/18 11:12:35;;;;;;;17.97;16.17;;;;;;;;;;5051490;28;20266;-59
2021/09/18 11:15:12;;;;;;;17.10;15.37;;;;;;;;;;5071240;28;20184;-59
2021/09/18 11:17:43;;;;;;;16.58;14.93;;;;;;;;;;5069031;28;20345;-59
2021/09/18 11:20:15;;;;;;;17.23;15.37;;;;;;;;;;5084301;28;20186;-59
2021/09/18 11:22:42;;;;;;;16.30;14.27;;;;;;;;;;5086660;28;20506;-59
2021/09/18 11:25:27;;;;;;;15.27;12.90;;;;;;;;;;5088528;28;20182;-59
2021/09/18 11:28:13;;;;;;;15.83;14.17;;;;;;;;;;5089532;28;20252;-59
2021/09/18 11:30:40;;;;;;;14.07;12.50;;;;;;;;;;5080930;28;20742;-59
2021/09/18 11:33:07;;;;;;;13.60;12.20;;;;;;;;;;5069948;28;20189;-59
2021/09/18 11:35:33;;;;;;;13.77;12.37;;;;;;;;;;5088664;28;20201;-59
2021/09/18 11:38:00;;;;;;;12.73;11.53;;;;;;;;;;5088138;28;20484;-59
2021/09/18 11:40:27;;;;;;;12.13;10.93;;;;;;;;;;5091532;28;20241;-59
2021/09/18 11:42:56;;;;;;;13.77;12.47;;;;;;;;;;5055012;28;20234;-59
2021/09/18 11:45:23;;;;;;;12.47;11.33;;;;;;;;;;5070583;28;20183;-59
2021/09/18 11:47:56;;;;;;;12.60;11.30;;;;;;;;;;5088449;28;20192;-59
2021/09/18 11:50:24;;;;;;;12.93;11.70;;;;;;;;;;5088723;28;20256;-59
2021/09/18 11:52:54;;;;;;;11.83;10.63;;;;;;;;;;5092383;28;20233;-59
2021/09/18 11:55:29;;;;;;;12.13;11.03;;;;;;;;;;5073835;28;20286;-59
2021/09/18 11:58:02;;;;;;;11.27;10.03;;;;;;;;;;5073844;28;20653;-59
2021/09/18 12:00:28;;;;;;;12.10;9.73;;;;;;;;;;5103207;28;20183;-59
2021/09/18 12:02:58;;;;;;;11.43;9.07;;;;;;;;;;5108092;28;20212;-59
2021/09/18 12:05:25;;;;;;;10.33;9.20;;;;;;;;;;5091584;28;20316;-59
2021/09/18 12:07:51;;;;;;;11.10;9.53;;;;;;;;;;5092064;28;20638;-58
2021/09/18 12:10:19;;;;;;;10.40;9.40;;;;;;;;;;5083883;28;20184;-59
2021/09/18 12:12:49;;;;;;;10.50;9.50;;;;;;;;;;5104563;28;20256;-59
2021/09/18 12:15:15;;;;;;;10.37;9.37;;;;;;;;;;5092358;28;20274;-59
2021/09/18 12:17:42;;;;;;;10.13;9.17;;;;;;;;;;5092404;28;20721;-59
2021/09/18 12:20:12;;;;;;;11.30;10.30;;;;;;;;;;5074814;28;20174;-59
2021/09/18 12:22:39;;;;;;;10.30;9.10;;;;;;;;;;5093057;28;20264;-59
2021/09/18 12:25:06;;;;;;;11.17;9.93;;;;;;;;;;5074387;28;20189;-58
2021/09/18 12:27:36;;;;;;;9.87;8.90;;;;;;;;;;5087047;28;20531;-59
2021/09/18 12:30:11;;;;;;;9.40;8.47;;;;;;;;;;5073014;28;20217;-59
2021/09/18 12:32:37;;;;;;;10.90;8.67;;;;;;;;;;5092542;28;20337;-59
2021/09/18 12:35:06;;;;;;;9.87;8.87;;;;;;;;;;5093923;28;20194;-59
2021/09/18 12:37:34;;;;;;;10.03;9.10;;;;;;;;;;5074922;28;20209;-59
2021/09/18 12:40:19;;;;;;;9.70;8.90;;;;;;;;;;5056770;28;20541;-59
2021/09/18 12:43:04;;;;;;;8.60;7.90;;;;;;;;;;5072816;28;20189;-59
2021/09/18 12:45:34;;;;;;;9.07;8.17;;;;;;;;;;5090573;28;20915;-58
2021/09/18 12:48:29;;;;;;;9.73;8.57;;;;;;;;;;5089385;28;20657;-59
2021/09/18 12:51:06;;;;;;;9.07;8.20;;;;;;;;;;5075206;28;20632;-58
2021/09/18 12:53:32;;;;;;;10.10;9.10;;;;;;;;;;5102257;28;20176;-58
2021/09/18 12:56:25;;;;;;;9.27;8.37;;;;;;;;;;5092006;28;20188;-58
2021/09/18 12:59:03;;;;;;;8.33;7.40;;;;;;;;;;5052951;28;20230;-58
2021/09/18 13:01:40;;;;;;;8.73;7.93;;;;;;;;;;5087665;28;20181;-58
2021/09/18 13:04:10;;;;;;;9.37;8.50;;;;;;;;;;5070265;28;20191;-58
2021/09/18 13:06:40;;;;;;;8.80;8.00;;;;;;;;;;5089792;28;20266;-58
2021/09/18 13:09:10;;;;;;;9.40;8.57;;;;;;;;;;5070987;28;20201;-58
2021/09/18 13:11:50;;;;;;;8.73;7.93;;;;;;;;;;5106875;28;20344;-58
2021/09/18 13:14:18;;;;;;;9.10;7.97;;;;;;;;;;5089345;28;20520;-58
2021/09/18 13:16:58;;;;;;;8.80;7.93;;;;;;;;;;5071664;28;20179;-58
2021/09/18 13:19:25;;;;;;;8.83;8.00;;;;;;;;;;5075994;28;20732;-58
2021/09/18 13:21:51;;;;;;;8.27;7.57;;;;;;;;;;5090909;28;20882;-59
2021/09/18 13:24:17;;;;;;;8.23;7.43;;;;;;;;;;5090299;28;20180;-58
2021/09/18 13:26:43;;;;;;;8.60;7.80;;;;;;;;;;5090490;28;20516;-58
2021/09/18 13:29:10;;;;;;;9.17;8.27;;;;;;;;;;5090464;28;20728;-58
2021/09/18 13:31:36;;;;;;;10.50;7.70;;;;;;;;;;5073037;28;20185;-58
2021/09/18 13:34:03;;;;;;;8.10;7.40;;;;;;;;;;5076868;28;20183;-58
2021/09/18 13:36:29;;;;;;;7.77;7.07;;;;;;;;;;5089451;28;20245;-59
2021/09/18 13:38:55;;;;;;;8.00;7.37;;;;;;;;;;5089594;28;20216;-58
2021/09/18 13:41:21;;;;;;;8.27;7.53;;;;;;;;;;5071946;28;20194;-58
2021/09/18 13:43:47;;;;;;;9.57;8.33;;;;;;;;;;5090280;28;20537;-58
2021/09/18 13:46:13;;;;;;;9.50;8.60;;;;;;;;;;5107357;28;20258;-58
2021/09/18 13:48:39;;;;;;;8.87;8.07;;;;;;;;;;5099845;28;20202;-58
2021/09/18 13:51:05;;;;;;;8.63;7.83;;;;;;;;;;5072517;28;20512;-58
2021/09/18 13:53:31;;;;;;;9.00;8.30;;;;;;;;;;5071554;28;20186;-58
2021/09/18 13:55:58;;;;;;;9.10;8.30;;;;;;;;;;5088248;28;20278;-58
2021/09/18 13:58:24;;;;;;;7.97;7.17;;;;;;;;;;5089646;28;20202;-58
2021/09/18 14:00:51;;;;;;;8.67;7.87;;;;;;;;;;5088783;28;20540;-59
2021/09/18 14:03:17;;;;;;;10.37;9.50;;;;;;;;;;5089897;28;20188;-58
2021/09/18 14:05:43;;;;;;;9.57;8.67;;;;;;;;;;5088191;28;20214;-59
2021/09/18 14:08:09;;;;;;;9.10;8.30;;;;;;;;;;5089464;28;20267;-59
2021/09/18 14:10:35;;;;;;;9.53;8.57;;;;;;;;;;5089276;28;20188;-59
2021/09/18 14:13:02;;;;;;;9.93;9.02;;;;;;;;;;5088857;28;20973;-58
2021/09/18 14:15:28;;;;;;;9.73;8.93;;;;;;;;;;5078956;28;20179;-58
2021/09/18 14:17:54;;;;;;;8.40;7.70;;;;;;;;;;5088497;28;20298;-58
2021/09/18 14:20:20;;;;;;;11.60;10.60;;;;;;;;;;5079609;28;20592;-58
2021/09/18 14:22:47;;;;;;;9.57;8.73;;;;;;;;;;5088544;28;20192;-58
2021/09/18 14:25:13;;;;;;;7.87;7.17;;;;;;;;;;5083617;28;20540;-58
2021/09/18 14:27:39;;;;;;;8.73;7.93;;;;;;;;;;5087094;28;20652;-59
2021/09/18 14:30:07;;;;;;;8.97;7.77;;;;;;;;;;5089119;28;20240;-58
2021/09/18 14:32:33;;;;;;;9.53;8.63;;;;;;;;;;5089432;28;20203;-58